Aviation Digital Data Service (ADDS)

Output produced by METARs form (1404 UTC 22 April 2021)
found at http://aviationweather.gov/metar/data/
 
METAR text: KJOT 221355Z AUTO 25004KT 10SM CLR 06/M04 A3016 RMK AO2 T00561037
Conditions at: KJOT (JOLIET , IL, US) observed 1355 UTC 22 April 2021
Temperature: 5.6°C (42°F)
Dewpoint: -3.7°C (25°F) [RH = 51%]
Pressure (altimeter): 30.16 inches Hg (1021.4 mb)
Winds: from the WSW (250 degrees) at 5 MPH (4 knots; 2.1 m/s)
Visibility: 10 or more miles (16+ km)
Ceiling: at least 12,000 feet AGL
Clouds: sky clear below 12,000 feet AGL
Weather: automated observation with no human augmentation;
there may or may not be significant weather present at this time